sensor_id;sensor_type;location;lat;lon;timestamp;P1;durP1;ratioP1;P2;durP2;ratioP2
53281;SDS011;39167;52.794;6.892;2023-03-03T00:02:18;32.92;;;16.65;;
53281;SDS011;39167;52.794;6.892;2023-03-03T00:04:44;35.47;;;16.63;;
53281;SDS011;39167;52.794;6.892;2023-03-03T00:07:13;36.72;;;16.30;;
53281;SDS011;39167;52.794;6.892;2023-03-03T00:09:45;30.30;;;15.60;;
53281;SDS011;39167;52.794;6.892;2023-03-03T00:12:27;31.45;;;15.43;;
53281;SDS011;39167;52.794;6.892;2023-03-03T00:14:55;30.60;;;14.02;;
53281;SDS011;39167;52.794;6.892;2023-03-03T00:17:22;29.00;;;15.02;;
53281;SDS011;39167;52.794;6.892;2023-03-03T00:19:50;30.15;;;15.50;;
53281;SDS011;39167;52.794;6.892;2023-03-03T00:22:30;30.00;;;14.85;;
53281;SDS011;39167;52.794;6.892;2023-03-03T00:25:18;32.97;;;16.52;;
53281;SDS011;39167;52.794;6.892;2023-03-03T00:27:52;30.85;;;15.40;;
53281;SDS011;39167;52.794;6.892;2023-03-03T00:30:25;31.50;;;16.10;;
53281;SDS011;39167;52.794;6.892;2023-03-03T00:32:55;31.58;;;15.75;;
53281;SDS011;39167;52.794;6.892;2023-03-03T00:35:28;28.70;;;14.98;;
53281;SDS011;39167;52.794;6.892;2023-03-03T00:38:00;29.33;;;14.70;;
53281;SDS011;39167;52.794;6.892;2023-03-03T00:40:34;31.88;;;15.27;;
53281;SDS011;39167;52.794;6.892;2023-03-03T00:43:11;31.92;;;16.08;;
53281;SDS011;39167;52.794;6.892;2023-03-03T00:45:47;32.83;;;15.77;;
53281;SDS011;39167;52.794;6.892;2023-03-03T00:50:52;31.42;;;16.45;;
53281;SDS011;39167;52.794;6.892;2023-03-03T00:53:21;34.33;;;16.13;;
53281;SDS011;39167;52.794;6.892;2023-03-03T00:55:48;34.55;;;15.52;;
53281;SDS011;39167;52.794;6.892;2023-03-03T00:58:15;33.70;;;17.13;;
53281;SDS011;39167;52.794;6.892;2023-03-03T01:00:42;33.63;;;16.63;;
53281;SDS011;39167;52.794;6.892;2023-03-03T01:03:11;37.10;;;17.23;;
53281;SDS011;39167;52.794;6.892;2023-03-03T01:05:39;32.75;;;16.73;;
53281;SDS011;39167;52.794;6.892;2023-03-03T01:08:05;35.40;;;16.88;;
53281;SDS011;39167;52.794;6.892;2023-03-03T01:10:32;33.22;;;17.30;;
53281;SDS011;39167;52.794;6.892;2023-03-03T01:13:02;37.92;;;17.70;;
53281;SDS011;39167;52.794;6.892;2023-03-03T01:15:29;37.15;;;17.88;;
53281;SDS011;39167;52.794;6.892;2023-03-03T01:17:55;34.22;;;16.65;;
53281;SDS011;39167;52.794;6.892;2023-03-03T01:20:21;32.55;;;15.38;;
53281;SDS011;39167;52.794;6.892;2023-03-03T01:22:47;37.90;;;17.33;;
53281;SDS011;39167;52.794;6.892;2023-03-03T01:25:13;40.63;;;16.95;;
53281;SDS011;39167;52.794;6.892;2023-03-03T01:27:39;41.03;;;17.23;;
53281;SDS011;39167;52.794;6.892;2023-03-03T01:30:05;33.35;;;16.60;;
53281;SDS011;39167;52.794;6.892;2023-03-03T01:32:32;35.30;;;17.10;;
53281;SDS011;39167;52.794;6.892;2023-03-03T01:34:57;39.85;;;17.88;;
53281;SDS011;39167;52.794;6.892;2023-03-03T01:37:23;26.27;;;14.45;;
53281;SDS011;39167;52.794;6.892;2023-03-03T01:39:50;31.08;;;15.20;;
53281;SDS011;39167;52.794;6.892;2023-03-03T01:42:20;33.63;;;15.75;;
53281;SDS011;39167;52.794;6.892;2023-03-03T01:44:46;33.67;;;16.67;;
53281;SDS011;39167;52.794;6.892;2023-03-03T01:49:50;35.78;;;16.25;;
53281;SDS011;39167;52.794;6.892;2023-03-03T01:52:33;32.65;;;15.75;;
53281;SDS011;39167;52.794;6.892;2023-03-03T01:55:05;36.90;;;16.23;;
53281;SDS011;39167;52.794;6.892;2023-03-03T01:57:38;29.77;;;15.60;;
53281;SDS011;39167;52.794;6.892;2023-03-03T02:00:16;37.17;;;16.33;;
53281;SDS011;39167;52.794;6.892;2023-03-03T02:02:42;36.58;;;17.25;;
53281;SDS011;39167;52.794;6.892;2023-03-03T02:05:08;38.30;;;16.42;;
53281;SDS011;39167;52.794;6.892;2023-03-03T02:07:35;38.63;;;17.40;;
53281;SDS011;39167;52.794;6.892;2023-03-03T02:10:06;39.67;;;17.23;;
53281;SDS011;39167;52.794;6.892;2023-03-03T02:12:53;32.22;;;14.73;;
53281;SDS011;39167;52.794;6.892;2023-03-03T02:15:24;41.85;;;18.38;;
53281;SDS011;39167;52.794;6.892;2023-03-03T02:17:53;37.17;;;16.88;;
53281;SDS011;39167;52.794;6.892;2023-03-03T02:23:42;36.13;;;17.02;;
53281;SDS011;39167;52.794;6.892;2023-03-03T02:26:23;33.75;;;16.08;;
53281;SDS011;39167;52.794;6.892;2023-03-03T02:28:50;38.10;;;16.90;;
53281;SDS011;39167;52.794;6.892;2023-03-03T02:31:18;34.15;;;15.88;;
53281;SDS011;39167;52.794;6.892;2023-03-03T02:33:47;48.25;;;17.23;;
53281;SDS011;39167;52.794;6.892;2023-03-03T02:36:15;31.30;;;14.20;;
53281;SDS011;39167;52.794;6.892;2023-03-03T02:38:51;38.72;;;15.43;;
53281;SDS011;39167;52.794;6.892;2023-03-03T02:44:06;34.13;;;14.75;;
53281;SDS011;39167;52.794;6.892;2023-03-03T02:49:00;32.88;;;12.68;;
53281;SDS011;39167;52.794;6.892;2023-03-03T02:51:27;33.78;;;13.23;;
53281;SDS011;39167;52.794;6.892;2023-03-03T02:53:53;31.30;;;12.77;;
53281;SDS011;39167;52.794;6.892;2023-03-03T02:56:18;28.58;;;11.75;;
53281;SDS011;39167;52.794;6.892;2023-03-03T02:58:44;23.08;;;11.05;;
53281;SDS011;39167;52.794;6.892;2023-03-03T03:01:10;30.23;;;11.90;;
53281;SDS011;39167;52.794;6.892;2023-03-03T03:03:36;25.75;;;10.52;;
53281;SDS011;39167;52.794;6.892;2023-03-03T03:06:02;28.58;;;11.63;;
53281;SDS011;39167;52.794;6.892;2023-03-03T03:08:27;27.10;;;10.82;;
53281;SDS011;39167;52.794;6.892;2023-03-03T03:10:53;28.63;;;9.65;;
53281;SDS011;39167;52.794;6.892;2023-03-03T03:13:21;25.08;;;10.25;;
53281;SDS011;39167;52.794;6.892;2023-03-03T03:15:47;25.48;;;10.18;;
53281;SDS011;39167;52.794;6.892;2023-03-03T03:18:13;21.45;;;8.52;;
53281;SDS011;39167;52.794;6.892;2023-03-03T03:20:40;19.85;;;9.50;;
53281;SDS011;39167;52.794;6.892;2023-03-03T03:23:06;20.92;;;8.95;;
53281;SDS011;39167;52.794;6.892;2023-03-03T03:25:32;32.72;;;10.10;;
53281;SDS011;39167;52.794;6.892;2023-03-03T03:27:58;37.97;;;11.65;;
53281;SDS011;39167;52.794;6.892;2023-03-03T03:30:24;28.35;;;10.63;;
53281;SDS011;39167;52.794;6.892;2023-03-03T03:32:50;68.10;;;11.68;;
53281;SDS011;39167;52.794;6.892;2023-03-03T03:35:16;25.20;;;8.93;;
53281;SDS011;39167;52.794;6.892;2023-03-03T03:37:42;25.35;;;9.50;;
53281;SDS011;39167;52.794;6.892;2023-03-03T03:40:08;27.92;;;8.45;;
53281;SDS011;39167;52.794;6.892;2023-03-03T03:42:36;38.40;;;9.45;;
53281;SDS011;39167;52.794;6.892;2023-03-03T03:45:03;23.23;;;9.00;;
53281;SDS011;39167;52.794;6.892;2023-03-03T03:47:30;21.42;;;8.60;;
53281;SDS011;39167;52.794;6.892;2023-03-03T03:49:55;25.98;;;9.15;;
53281;SDS011;39167;52.794;6.892;2023-03-03T03:52:21;17.58;;;7.95;;
53281;SDS011;39167;52.794;6.892;2023-03-03T03:54:47;18.35;;;8.15;;
53281;SDS011;39167;52.794;6.892;2023-03-03T03:57:15;40.15;;;9.45;;
53281;SDS011;39167;52.794;6.892;2023-03-03T03:59:41;25.60;;;9.23;;
53281;SDS011;39167;52.794;6.892;2023-03-03T04:02:07;21.38;;;8.70;;
53281;SDS011;39167;52.794;6.892;2023-03-03T04:04:32;35.58;;;8.43;;
53281;SDS011;39167;52.794;6.892;2023-03-03T04:06:58;24.50;;;8.98;;
53281;SDS011;39167;52.794;6.892;2023-03-03T04:09:24;39.05;;;9.18;;
53281;SDS011;39167;52.794;6.892;2023-03-03T04:11:50;41.33;;;9.60;;
53281;SDS011;39167;52.794;6.892;2023-03-03T04:14:15;23.05;;;8.63;;
53281;SDS011;39167;52.794;6.892;2023-03-03T04:16:41;18.90;;;8.95;;
53281;SDS011;39167;52.794;6.892;2023-03-03T04:19:07;21.33;;;8.77;;
53281;SDS011;39167;52.794;6.892;2023-03-03T04:21:32;30.88;;;9.25;;
53281;SDS011;39167;52.794;6.892;2023-03-03T04:23:58;22.60;;;9.82;;
53281;SDS011;39167;52.794;6.892;2023-03-03T04:26:24;36.67;;;9.77;;
53281;SDS011;39167;52.794;6.892;2023-03-03T04:28:50;44.15;;;9.57;;
53281;SDS011;39167;52.794;6.892;2023-03-03T04:31:16;34.75;;;10.48;;
53281;SDS011;39167;52.794;6.892;2023-03-03T04:33:42;36.15;;;10.43;;
53281;SDS011;39167;52.794;6.892;2023-03-03T04:36:08;21.58;;;9.18;;
53281;SDS011;39167;52.794;6.892;2023-03-03T04:38:34;37.65;;;9.93;;
53281;SDS011;39167;52.794;6.892;2023-03-03T04:41:00;30.40;;;9.98;;
53281;SDS011;39167;52.794;6.892;2023-03-03T04:43:25;33.67;;;10.30;;
53281;SDS011;39167;52.794;6.892;2023-03-03T04:45:51;36.15;;;10.20;;
53281;SDS011;39167;52.794;6.892;2023-03-03T04:48:17;28.75;;;10.48;;
53281;SDS011;39167;52.794;6.892;2023-03-03T04:50:42;40.00;;;10.48;;
53281;SDS011;39167;52.794;6.892;2023-03-03T04:53:08;19.80;;;8.95;;
53281;SDS011;39167;52.794;6.892;2023-03-03T04:55:35;24.58;;;9.52;;
53281;SDS011;39167;52.794;6.892;2023-03-03T04:58:02;49.72;;;10.90;;
53281;SDS011;39167;52.794;6.892;2023-03-03T05:00:28;25.67;;;10.40;;
53281;SDS011;39167;52.794;6.892;2023-03-03T05:02:54;39.60;;;11.70;;
53281;SDS011;39167;52.794;6.892;2023-03-03T05:05:20;27.40;;;10.43;;
53281;SDS011;39167;52.794;6.892;2023-03-03T05:07:46;40.63;;;11.43;;
53281;SDS011;39167;52.794;6.892;2023-03-03T05:10:11;99.13;;;13.30;;
53281;SDS011;39167;52.794;6.892;2023-03-03T05:12:40;42.50;;;11.75;;
53281;SDS011;39167;52.794;6.892;2023-03-03T05:15:06;47.53;;;12.00;;
53281;SDS011;39167;52.794;6.892;2023-03-03T05:17:32;26.40;;;11.95;;
53281;SDS011;39167;52.794;6.892;2023-03-03T05:19:58;30.13;;;12.25;;
53281;SDS011;39167;52.794;6.892;2023-03-03T05:22:23;23.67;;;10.57;;
53281;SDS011;39167;52.794;6.892;2023-03-03T05:24:49;37.53;;;12.10;;
53281;SDS011;39167;52.794;6.892;2023-03-03T05:27:15;25.95;;;11.57;;
53281;SDS011;39167;52.794;6.892;2023-03-03T05:29:41;35.35;;;12.65;;
53281;SDS011;39167;52.794;6.892;2023-03-03T05:32:07;45.28;;;12.63;;
53281;SDS011;39167;52.794;6.892;2023-03-03T05:34:33;26.48;;;12.23;;
53281;SDS011;39167;52.794;6.892;2023-03-03T05:36:58;27.70;;;12.15;;
53281;SDS011;39167;52.794;6.892;2023-03-03T05:39:24;29.40;;;12.25;;
53281;SDS011;39167;52.794;6.892;2023-03-03T05:41:50;29.30;;;10.82;;
53281;SDS011;39167;52.794;6.892;2023-03-03T05:44:15;37.20;;;11.73;;
53281;SDS011;39167;52.794;6.892;2023-03-03T05:46:41;27.67;;;11.80;;
53281;SDS011;39167;52.794;6.892;2023-03-03T05:49:07;27.60;;;11.00;;
53281;SDS011;39167;52.794;6.892;2023-03-03T05:51:33;28.67;;;11.68;;
53281;SDS011;39167;52.794;6.892;2023-03-03T05:53:59;35.60;;;11.95;;
53281;SDS011;39167;52.794;6.892;2023-03-03T05:56:24;37.42;;;13.50;;
53281;SDS011;39167;52.794;6.892;2023-03-03T05:58:50;33.58;;;12.80;;
53281;SDS011;39167;52.794;6.892;2023-03-03T06:01:16;41.25;;;12.52;;
53281;SDS011;39167;52.794;6.892;2023-03-03T06:03:42;51.22;;;12.77;;
53281;SDS011;39167;52.794;6.892;2023-03-03T06:06:08;46.13;;;12.85;;
53281;SDS011;39167;52.794;6.892;2023-03-03T06:08:34;32.90;;;12.32;;
53281;SDS011;39167;52.794;6.892;2023-03-03T06:11:00;39.65;;;12.25;;
53281;SDS011;39167;52.794;6.892;2023-03-03T06:13:25;28.02;;;11.57;;
53281;SDS011;39167;52.794;6.892;2023-03-03T06:15:51;28.33;;;11.38;;
53281;SDS011;39167;52.794;6.892;2023-03-03T06:18:17;26.73;;;11.05;;
53281;SDS011;39167;52.794;6.892;2023-03-03T06:20:43;26.45;;;11.25;;
53281;SDS011;39167;52.794;6.892;2023-03-03T06:23:08;36.72;;;12.70;;
53281;SDS011;39167;52.794;6.892;2023-03-03T06:25:34;28.73;;;11.88;;
53281;SDS011;39167;52.794;6.892;2023-03-03T06:28:00;32.38;;;12.40;;
53281;SDS011;39167;52.794;6.892;2023-03-03T06:30:26;28.63;;;12.27;;
53281;SDS011;39167;52.794;6.892;2023-03-03T06:32:54;30.98;;;12.07;;
53281;SDS011;39167;52.794;6.892;2023-03-03T06:35:20;35.38;;;12.27;;
53281;SDS011;39167;52.794;6.892;2023-03-03T06:37:48;79.22;;;15.40;;
53281;SDS011;39167;52.794;6.892;2023-03-03T06:40:15;61.83;;;14.18;;
53281;SDS011;39167;52.794;6.892;2023-03-03T06:42:40;34.38;;;12.82;;
53281;SDS011;39167;52.794;6.892;2023-03-03T06:45:09;35.60;;;13.40;;
53281;SDS011;39167;52.794;6.892;2023-03-03T06:47:35;27.30;;;11.45;;
53281;SDS011;39167;52.794;6.892;2023-03-03T06:50:00;27.77;;;11.07;;
53281;SDS011;39167;52.794;6.892;2023-03-03T06:52:26;23.65;;;11.25;;
53281;SDS011;39167;52.794;6.892;2023-03-03T06:54:53;24.15;;;11.10;;
53281;SDS011;39167;52.794;6.892;2023-03-03T06:57:30;24.50;;;10.20;;
53281;SDS011;39167;52.794;6.892;2023-03-03T07:00:17;23.88;;;10.43;;
53281;SDS011;39167;52.794;6.892;2023-03-03T07:02:52;28.08;;;11.32;;
53281;SDS011;39167;52.794;6.892;2023-03-03T07:05:26;41.75;;;12.48;;
53281;SDS011;39167;52.794;6.892;2023-03-03T07:07:54;37.10;;;13.35;;
53281;SDS011;39167;52.794;6.892;2023-03-03T07:10:22;34.85;;;13.65;;
53281;SDS011;39167;52.794;6.892;2023-03-03T07:15:47;31.30;;;11.45;;
53281;SDS011;39167;52.794;6.892;2023-03-03T07:23:43;28.23;;;11.95;;
53281;SDS011;39167;52.794;6.892;2023-03-03T07:26:11;25.42;;;11.52;;
53281;SDS011;39167;52.794;6.892;2023-03-03T07:28:43;26.00;;;11.77;;
53281;SDS011;39167;52.794;6.892;2023-03-03T07:31:24;32.05;;;13.35;;
53281;SDS011;39167;52.794;6.892;2023-03-03T07:33:52;36.78;;;14.93;;
53281;SDS011;39167;52.794;6.892;2023-03-03T07:38:59;26.25;;;12.35;;
53281;SDS011;39167;52.794;6.892;2023-03-03T07:41:26;31.35;;;13.02;;
53281;SDS011;39167;52.794;6.892;2023-03-03T07:49:15;27.02;;;12.27;;
53281;SDS011;39167;52.794;6.892;2023-03-03T07:51:55;28.30;;;12.35;;
53281;SDS011;39167;52.794;6.892;2023-03-03T07:54:29;34.03;;;12.88;;
53281;SDS011;39167;52.794;6.892;2023-03-03T07:57:23;32.47;;;13.13;;
53281;SDS011;39167;52.794;6.892;2023-03-03T08:05:43;39.92;;;13.98;;
53281;SDS011;39167;52.794;6.892;2023-03-03T08:13:17;37.05;;;13.90;;
53281;SDS011;39167;52.794;6.892;2023-03-03T08:15:52;36.63;;;14.55;;
53281;SDS011;39167;52.794;6.892;2023-03-03T08:21:37;33.28;;;13.40;;
53281;SDS011;39167;52.794;6.892;2023-03-03T08:23:57;33.15;;;12.50;;
53281;SDS011;39167;52.794;6.892;2023-03-03T08:26:23;30.70;;;13.25;;
53281;SDS011;39167;52.794;6.892;2023-03-03T08:28:50;37.05;;;13.40;;
53281;SDS011;39167;52.794;6.892;2023-03-03T08:31:17;34.33;;;15.00;;
53281;SDS011;39167;52.794;6.892;2023-03-03T08:33:43;40.03;;;13.65;;
53281;SDS011;39167;52.794;6.892;2023-03-03T08:36:09;35.40;;;13.57;;
53281;SDS011;39167;52.794;6.892;2023-03-03T08:38:35;32.08;;;12.82;;
53281;SDS011;39167;52.794;6.892;2023-03-03T08:41:01;31.95;;;13.38;;
53281;SDS011;39167;52.794;6.892;2023-03-03T08:43:28;29.58;;;12.13;;
53281;SDS011;39167;52.794;6.892;2023-03-03T08:45:56;28.33;;;12.07;;
53281;SDS011;39167;52.794;6.892;2023-03-03T08:48:24;34.28;;;13.70;;
53281;SDS011;39167;52.794;6.892;2023-03-03T08:50:50;30.80;;;12.90;;
53281;SDS011;39167;52.794;6.892;2023-03-03T08:53:17;31.08;;;12.68;;
53281;SDS011;39167;52.794;6.892;2023-03-03T08:55:43;30.65;;;12.73;;
53281;SDS011;39167;52.794;6.892;2023-03-03T08:58:09;30.73;;;12.27;;
53281;SDS011;39167;52.794;6.892;2023-03-03T09:00:35;29.48;;;12.15;;
53281;SDS011;39167;52.794;6.892;2023-03-03T09:03:02;23.48;;;10.75;;
53281;SDS011;39167;52.794;6.892;2023-03-03T09:05:31;27.63;;;12.15;;
53281;SDS011;39167;52.794;6.892;2023-03-03T09:07:58;28.58;;;11.70;;
53281;SDS011;39167;52.794;6.892;2023-03-03T09:10:25;28.65;;;12.77;;
53281;SDS011;39167;52.794;6.892;2023-03-03T09:12:53;28.13;;;12.00;;
53281;SDS011;39167;52.794;6.892;2023-03-03T09:15:30;23.15;;;11.30;;
53281;SDS011;39167;52.794;6.892;2023-03-03T09:23:30;21.67;;;9.55;;
53281;SDS011;39167;52.794;6.892;2023-03-03T09:26:14;22.20;;;10.25;;
53281;SDS011;39167;52.794;6.892;2023-03-03T09:31:43;21.92;;;9.05;;
53281;SDS011;39167;52.794;6.892;2023-03-03T09:36:57;23.35;;;10.27;;
53281;SDS011;39167;52.794;6.892;2023-03-03T09:39:24;23.30;;;9.23;;
53281;SDS011;39167;52.794;6.892;2023-03-03T09:42:15;21.73;;;9.82;;
53281;SDS011;39167;52.794;6.892;2023-03-03T09:54:00;20.30;;;10.05;;
53281;SDS011;39167;52.794;6.892;2023-03-03T09:56:29;22.73;;;10.15;;
53281;SDS011;39167;52.794;6.892;2023-03-03T10:18:36;16.27;;;6.07;;
53281;SDS011;39167;52.794;6.892;2023-03-03T10:30:20;12.00;;;5.03;;
53281;SDS011;39167;52.794;6.892;2023-03-03T10:33:21;15.88;;;4.57;;
53281;SDS011;39167;52.794;6.892;2023-03-03T10:36:07;16.27;;;6.20;;
53281;SDS011;39167;52.794;6.892;2023-03-03T10:42:16;17.92;;;7.50;;
53281;SDS011;39167;52.794;6.892;2023-03-03T10:45:37;16.67;;;8.10;;
53281;SDS011;39167;52.794;6.892;2023-03-03T11:09:08;16.02;;;8.25;;
53281;SDS011;39167;52.794;6.892;2023-03-03T11:14:25;20.92;;;8.60;;
53281;SDS011;39167;52.794;6.892;2023-03-03T11:17:36;17.70;;;7.65;;
53281;SDS011;39167;52.794;6.892;2023-03-03T11:20:07;16.92;;;8.50;;
53281;SDS011;39167;52.794;6.892;2023-03-03T11:22:40;16.63;;;7.28;;
53281;SDS011;39167;52.794;6.892;2023-03-03T11:25:20;17.52;;;7.50;;
53281;SDS011;39167;52.794;6.892;2023-03-03T11:31:01;17.65;;;7.35;;
53281;SDS011;39167;52.794;6.892;2023-03-03T11:36:22;13.43;;;7.57;;
53281;SDS011;39167;52.794;6.892;2023-03-03T11:39:03;21.08;;;7.85;;
53281;SDS011;39167;52.794;6.892;2023-03-03T11:41:37;16.20;;;7.53;;
53281;SDS011;39167;52.794;6.892;2023-03-03T11:44:28;15.40;;;7.15;;
53281;SDS011;39167;52.794;6.892;2023-03-03T11:47:11;18.40;;;7.35;;
53281;SDS011;39167;52.794;6.892;2023-03-03T11:52:40;15.18;;;7.10;;
53281;SDS011;39167;52.794;6.892;2023-03-03T11:55:37;13.20;;;7.65;;
53281;SDS011;39167;52.794;6.892;2023-03-03T12:00:57;14.82;;;8.15;;
53281;SDS011;39167;52.794;6.892;2023-03-03T12:03:40;12.00;;;6.43;;
53281;SDS011;39167;52.794;6.892;2023-03-03T12:06:12;18.20;;;8.35;;
53281;SDS011;39167;52.794;6.892;2023-03-03T12:14:38;11.23;;;5.72;;
53281;SDS011;39167;52.794;6.892;2023-03-03T12:26:24;9.95;;;5.30;;
53281;SDS011;39167;52.794;6.892;2023-03-03T12:29:08;12.70;;;5.55;;
53281;SDS011;39167;52.794;6.892;2023-03-03T12:34:53;12.25;;;6.63;;
53281;SDS011;39167;52.794;6.892;2023-03-03T12:40:09;8.00;;;4.03;;
53281;SDS011;39167;52.794;6.892;2023-03-03T12:53:36;8.30;;;3.55;;
53281;SDS011;39167;52.794;6.892;2023-03-03T12:56:11;9.27;;;2.65;;
53281;SDS011;39167;52.794;6.892;2023-03-03T12:58:42;9.35;;;2.50;;
53281;SDS011;39167;52.794;6.892;2023-03-03T13:17:56;3.28;;;1.35;;
53281;SDS011;39167;52.794;6.892;2023-03-03T13:23:36;7.70;;;1.83;;
53281;SDS011;39167;52.794;6.892;2023-03-03T13:31:20;6.45;;;1.70;;
53281;SDS011;39167;52.794;6.892;2023-03-03T13:33:54;4.35;;;1.67;;
53281;SDS011;39167;52.794;6.892;2023-03-03T13:36:29;3.45;;;1.60;;
53281;SDS011;39167;52.794;6.892;2023-03-03T13:39:17;4.32;;;1.70;;
53281;SDS011;39167;52.794;6.892;2023-03-03T13:41:49;7.10;;;1.90;;
53281;SDS011;39167;52.794;6.892;2023-03-03T13:55:19;4.88;;;1.58;;
53281;SDS011;39167;52.794;6.892;2023-03-03T14:00:30;6.32;;;1.90;;
53281;SDS011;39167;52.794;6.892;2023-03-03T14:03:18;4.70;;;1.60;;
53281;SDS011;39167;52.794;6.892;2023-03-03T14:12:36;7.03;;;1.63;;
53281;SDS011;39167;52.794;6.892;2023-03-03T14:14:58;5.75;;;1.88;;
53281;SDS011;39167;52.794;6.892;2023-03-03T14:18:04;5.13;;;1.55;;
53281;SDS011;39167;52.794;6.892;2023-03-03T14:23:15;6.70;;;1.98;;
53281;SDS011;39167;52.794;6.892;2023-03-03T14:25:56;4.80;;;1.73;;
53281;SDS011;39167;52.794;6.892;2023-03-03T14:28:29;2.85;;;1.20;;
53281;SDS011;39167;52.794;6.892;2023-03-03T14:31:22;5.65;;;1.30;;
53281;SDS011;39167;52.794;6.892;2023-03-03T14:33:58;3.72;;;1.60;;
53281;SDS011;39167;52.794;6.892;2023-03-03T14:36:27;5.30;;;1.27;;
53281;SDS011;39167;52.794;6.892;2023-03-03T14:39:07;4.85;;;1.50;;
53281;SDS011;39167;52.794;6.892;2023-03-03T14:42:13;2.85;;;1.08;;
53281;SDS011;39167;52.794;6.892;2023-03-03T14:44:55;5.05;;;1.33;;
53281;SDS011;39167;52.794;6.892;2023-03-03T14:47:23;2.80;;;1.40;;
53281;SDS011;39167;52.794;6.892;2023-03-03T14:49:54;3.38;;;1.30;;
53281;SDS011;39167;52.794;6.892;2023-03-03T14:52:28;2.97;;;1.40;;
53281;SDS011;39167;52.794;6.892;2023-03-03T14:54:58;7.40;;;1.60;;
53281;SDS011;39167;52.794;6.892;2023-03-03T15:05:24;3.95;;;1.52;;
53281;SDS011;39167;52.794;6.892;2023-03-03T15:10:28;2.17;;;1.30;;
53281;SDS011;39167;52.794;6.892;2023-03-03T15:13:08;4.13;;;1.30;;
53281;SDS011;39167;52.794;6.892;2023-03-03T15:15:41;2.83;;;1.35;;
53281;SDS011;39167;52.794;6.892;2023-03-03T15:18:22;5.60;;;1.40;;
53281;SDS011;39167;52.794;6.892;2023-03-03T15:20:55;2.33;;;1.08;;
53281;SDS011;39167;52.794;6.892;2023-03-03T15:29:40;3.40;;;1.55;;
53281;SDS011;39167;52.794;6.892;2023-03-03T15:38:02;2.63;;;1.00;;
53281;SDS011;39167;52.794;6.892;2023-03-03T15:40:47;5.93;;;1.38;;
53281;SDS011;39167;52.794;6.892;2023-03-03T15:46:27;4.90;;;1.40;;
53281;SDS011;39167;52.794;6.892;2023-03-03T15:49:15;10.00;;;1.50;;
53281;SDS011;39167;52.794;6.892;2023-03-03T15:51:46;7.15;;;1.30;;
53281;SDS011;39167;52.794;6.892;2023-03-03T15:54:27;4.60;;;1.25;;
53281;SDS011;39167;52.794;6.892;2023-03-03T15:57:20;7.95;;;1.50;;
53281;SDS011;39167;52.794;6.892;2023-03-03T16:05:27;10.02;;;1.80;;
53281;SDS011;39167;52.794;6.892;2023-03-03T16:10:45;13.30;;;1.83;;
53281;SDS011;39167;52.794;6.892;2023-03-03T16:27:19;12.88;;;2.38;;
53281;SDS011;39167;52.794;6.892;2023-03-03T16:35:29;14.13;;;2.85;;
53281;SDS011;39167;52.794;6.892;2023-03-03T16:38:02;11.13;;;3.00;;
53281;SDS011;39167;52.794;6.892;2023-03-03T16:40:49;14.70;;;4.10;;
53281;SDS011;39167;52.794;6.892;2023-03-03T16:48:55;18.10;;;3.42;;
53281;SDS011;39167;52.794;6.892;2023-03-03T16:51:50;19.40;;;4.40;;
53281;SDS011;39167;52.794;6.892;2023-03-03T16:54:45;24.38;;;4.53;;
53281;SDS011;39167;52.794;6.892;2023-03-03T16:57:27;17.42;;;4.28;;
53281;SDS011;39167;52.794;6.892;2023-03-03T16:59:59;17.85;;;4.05;;
53281;SDS011;39167;52.794;6.892;2023-03-03T17:05:23;18.43;;;5.27;;
53281;SDS011;39167;52.794;6.892;2023-03-03T17:11:04;20.17;;;4.55;;
53281;SDS011;39167;52.794;6.892;2023-03-03T17:28:27;18.52;;;3.85;;
53281;SDS011;39167;52.794;6.892;2023-03-03T17:31:36;22.52;;;4.15;;
53281;SDS011;39167;52.794;6.892;2023-03-03T17:39:40;20.38;;;3.63;;
53281;SDS011;39167;52.794;6.892;2023-03-03T17:42:13;19.27;;;3.60;;
53281;SDS011;39167;52.794;6.892;2023-03-03T17:47:38;18.77;;;3.42;;
53281;SDS011;39167;52.794;6.892;2023-03-03T17:50:24;26.30;;;3.67;;
53281;SDS011;39167;52.794;6.892;2023-03-03T17:56:00;21.90;;;4.20;;
53281;SDS011;39167;52.794;6.892;2023-03-03T18:09:28;23.08;;;3.83;;
53281;SDS011;39167;52.794;6.892;2023-03-03T18:12:28;16.05;;;3.30;;
53281;SDS011;39167;52.794;6.892;2023-03-03T18:23:32;20.75;;;3.63;;
53281;SDS011;39167;52.794;6.892;2023-03-03T18:28:55;18.50;;;3.30;;
53281;SDS011;39167;52.794;6.892;2023-03-03T18:31:46;12.63;;;2.90;;
53281;SDS011;39167;52.794;6.892;2023-03-03T18:36:59;20.42;;;3.38;;
53281;SDS011;39167;52.794;6.892;2023-03-03T18:42:33;20.45;;;3.30;;
53281;SDS011;39167;52.794;6.892;2023-03-03T18:45:45;24.60;;;3.88;;
53281;SDS011;39167;52.794;6.892;2023-03-03T18:48:12;18.70;;;3.53;;
53281;SDS011;39167;52.794;6.892;2023-03-03T18:50:39;13.65;;;3.15;;
53281;SDS011;39167;52.794;6.892;2023-03-03T18:53:11;22.30;;;3.63;;
53281;SDS011;39167;52.794;6.892;2023-03-03T19:04:02;21.23;;;3.80;;
53281;SDS011;39167;52.794;6.892;2023-03-03T19:06:10;19.10;;;3.20;;
53281;SDS011;39167;52.794;6.892;2023-03-03T19:08:54;21.35;;;3.33;;
53281;SDS011;39167;52.794;6.892;2023-03-03T19:16:56;24.75;;;3.92;;
53281;SDS011;39167;52.794;6.892;2023-03-03T19:19:29;26.08;;;4.20;;
53281;SDS011;39167;52.794;6.892;2023-03-03T19:22:19;16.30;;;3.00;;
53281;SDS011;39167;52.794;6.892;2023-03-03T19:27:48;23.48;;;4.22;;
53281;SDS011;39167;52.794;6.892;2023-03-03T19:41:01;21.48;;;3.35;;
53281;SDS011;39167;52.794;6.892;2023-03-03T19:44:35;25.38;;;3.15;;
53281;SDS011;39167;52.794;6.892;2023-03-03T19:46:55;19.50;;;3.33;;
53281;SDS011;39167;52.794;6.892;2023-03-03T19:52:47;25.52;;;3.55;;
53281;SDS011;39167;52.794;6.892;2023-03-03T19:58:33;19.60;;;3.90;;
53281;SDS011;39167;52.794;6.892;2023-03-03T20:03:45;17.88;;;3.72;;
53281;SDS011;39167;52.794;6.892;2023-03-03T20:06:34;19.48;;;3.67;;
53281;SDS011;39167;52.794;6.892;2023-03-03T20:14:47;25.02;;;4.97;;
53281;SDS011;39167;52.794;6.892;2023-03-03T20:20:45;23.00;;;3.78;;
53281;SDS011;39167;52.794;6.892;2023-03-03T20:23:22;22.85;;;3.80;;
53281;SDS011;39167;52.794;6.892;2023-03-03T20:31:30;22.42;;;3.72;;
53281;SDS011;39167;52.794;6.892;2023-03-03T20:36:39;25.35;;;3.70;;
53281;SDS011;39167;52.794;6.892;2023-03-03T20:39:35;20.08;;;2.95;;
53281;SDS011;39167;52.794;6.892;2023-03-03T21:04:36;20.98;;;3.92;;
53281;SDS011;39167;52.794;6.892;2023-03-03T21:07:03;17.52;;;3.65;;
53281;SDS011;39167;52.794;6.892;2023-03-03T21:09:36;16.88;;;3.25;;
53281;SDS011;39167;52.794;6.892;2023-03-03T21:12:10;20.67;;;3.70;;
53281;SDS011;39167;52.794;6.892;2023-03-03T21:15:07;23.15;;;3.58;;
53281;SDS011;39167;52.794;6.892;2023-03-03T21:17:46;25.35;;;4.53;;
53281;SDS011;39167;52.794;6.892;2023-03-03T21:20:26;17.25;;;3.90;;
53281;SDS011;39167;52.794;6.892;2023-03-03T21:22:53;24.23;;;4.25;;
53281;SDS011;39167;52.794;6.892;2023-03-03T21:28:18;21.13;;;3.42;;
53281;SDS011;39167;52.794;6.892;2023-03-03T21:36:16;13.70;;;2.88;;
53281;SDS011;39167;52.794;6.892;2023-03-03T21:39:18;17.38;;;3.92;;
53281;SDS011;39167;52.794;6.892;2023-03-03T21:41:49;20.98;;;3.45;;
53281;SDS011;39167;52.794;6.892;2023-03-03T21:44:44;20.90;;;3.30;;
53281;SDS011;39167;52.794;6.892;2023-03-03T21:47:17;23.83;;;3.50;;
53281;SDS011;39167;52.794;6.892;2023-03-03T21:49:45;15.68;;;2.85;;
53281;SDS011;39167;52.794;6.892;2023-03-03T21:52:14;14.35;;;3.20;;
53281;SDS011;39167;52.794;6.892;2023-03-03T21:54:42;21.13;;;3.60;;